sensor_id;sensor_type;location;lat;lon;timestamp;pressure;altitude;pressure_sealevel;temperature;humidity
42633;BME280;28261;53.304;-6.284;2023-12-20T00:01:34;101667.44;;;6.48;100.00
42633;BME280;28261;53.304;-6.284;2023-12-20T00:03:40;101661.25;;;6.49;100.00
42633;BME280;28261;53.304;-6.284;2023-12-20T00:05:45;101658.63;;;6.49;100.00
42633;BME280;28261;53.304;-6.284;2023-12-20T00:07:49;101650.72;;;6.49;100.00
42633;BME280;28261;53.304;-6.284;2023-12-20T00:09:53;101657.72;;;6.50;100.00
42633;BME280;28261;53.304;-6.284;2023-12-20T00:11:57;101653.31;;;6.50;100.00
42633;BME280;28261;53.304;-6.284;2023-12-20T00:14:02;101655.09;;;6.50;100.00
42633;BME280;28261;53.304;-6.284;2023-12-20T00:16:06;101654.22;;;6.49;100.00
42633;BME280;28261;53.304;-6.284;2023-12-20T00:18:12;101649.81;;;6.50;100.00
42633;BME280;28261;53.304;-6.284;2023-12-20T00:20:16;101643.66;;;6.49;100.00
42633;BME280;28261;53.304;-6.284;2023-12-20T00:22:23;101648.03;;;6.50;100.00
42633;BME280;28261;53.304;-6.284;2023-12-20T00:24:27;101658.56;;;6.50;100.00
42633;BME280;28261;53.304;-6.284;2023-12-20T00:26:32;101655.03;;;6.51;100.00
42633;BME280;28261;53.304;-6.284;2023-12-20T00:28:36;101658.56;;;6.50;100.00
42633;BME280;28261;53.304;-6.284;2023-12-20T00:30:41;101662.88;;;6.53;100.00
42633;BME280;28261;53.304;-6.284;2023-12-20T00:32:45;101641.75;;;6.54;100.00
42633;BME280;28261;53.304;-6.284;2023-12-20T00:34:50;101652.22;;;6.56;100.00
42633;BME280;28261;53.304;-6.284;2023-12-20T00:36:54;101656.59;;;6.57;100.00
42633;BME280;28261;53.304;-6.284;2023-12-20T00:39:01;101667.00;;;6.60;100.00
42633;BME280;28261;53.304;-6.284;2023-12-20T00:41:07;101659.09;;;6.60;100.00
42633;BME280;28261;53.304;-6.284;2023-12-20T00:43:11;101652.09;;;6.60;100.00
42633;BME280;28261;53.304;-6.284;2023-12-20T00:45:16;101661.75;;;6.60;100.00
42633;BME280;28261;53.304;-6.284;2023-12-20T00:47:21;101659.09;;;6.60;100.00
42633;BME280;28261;53.304;-6.284;2023-12-20T00:49:26;101669.69;;;6.58;100.00
42633;BME280;28261;53.304;-6.284;2023-12-20T00:51:31;101679.28;;;6.61;100.00
42633;BME280;28261;53.304;-6.284;2023-12-20T00:53:40;101670.47;;;6.62;100.00
42633;BME280;28261;53.304;-6.284;2023-12-20T00:55:46;101674.81;;;6.63;100.00
42633;BME280;28261;53.304;-6.284;2023-12-20T00:57:50;101675.69;;;6.64;100.00
42633;BME280;28261;53.304;-6.284;2023-12-20T00:59:55;101667.78;;;6.64;100.00
42633;BME280;28261;53.304;-6.284;2023-12-20T01:02:00;101668.63;;;6.64;100.00
42633;BME280;28261;53.304;-6.284;2023-12-20T01:04:04;101661.59;;;6.65;100.00
42633;BME280;28261;53.304;-6.284;2023-12-20T01:06:08;101665.09;;;6.65;100.00
42633;BME280;28261;53.304;-6.284;2023-12-20T01:08:13;101656.38;;;6.63;100.00
42633;BME280;28261;53.304;-6.284;2023-12-20T01:10:19;101651.06;;;6.65;100.00
42633;BME280;28261;53.304;-6.284;2023-12-20T01:12:24;101651.00;;;6.66;100.00
42633;BME280;28261;53.304;-6.284;2023-12-20T01:14:27;101652.59;;;6.70;100.00
42633;BME280;28261;53.304;-6.284;2023-12-20T01:16:38;101649.91;;;6.72;100.00
42633;BME280;28261;53.304;-6.284;2023-12-20T01:18:44;101642.84;;;6.72;100.00
42633;BME280;28261;53.304;-6.284;2023-12-20T01:20:48;101641.94;;;6.73;100.00
42633;BME280;28261;53.304;-6.284;2023-12-20T01:22:57;101652.44;;;6.75;100.00
42633;BME280;28261;53.304;-6.284;2023-12-20T01:25:05;101655.00;;;6.76;100.00
42633;BME280;28261;53.304;-6.284;2023-12-20T01:27:15;101654.09;;;6.77;100.00
42633;BME280;28261;53.304;-6.284;2023-12-20T01:29:22;101655.81;;;6.78;100.00
42633;BME280;28261;53.304;-6.284;2023-12-20T01:31:27;101647.00;;;6.80;100.00
42633;BME280;28261;53.304;-6.284;2023-12-20T01:33:37;101646.94;;;6.81;100.00
42633;BME280;28261;53.304;-6.284;2023-12-20T01:35:42;101646.88;;;6.83;100.00
42633;BME280;28261;53.304;-6.284;2023-12-20T01:37:46;101641.63;;;6.83;100.00
42633;BME280;28261;53.304;-6.284;2023-12-20T01:39:52;101633.66;;;6.84;100.00
42633;BME280;28261;53.304;-6.284;2023-12-20T01:41:59;101659.03;;;6.87;100.00
42633;BME280;28261;53.304;-6.284;2023-12-20T01:44:07;101659.81;;;6.90;100.00
42633;BME280;28261;53.304;-6.284;2023-12-20T01:46:17;101658.91;;;6.90;100.00
42633;BME280;28261;53.304;-6.284;2023-12-20T01:48:21;101650.03;;;6.92;100.00
42633;BME280;28261;53.304;-6.284;2023-12-20T01:50:26;101645.66;;;6.93;100.00
42633;BME280;28261;53.304;-6.284;2023-12-20T01:52:32;101655.19;;;6.95;100.00
42633;BME280;28261;53.304;-6.284;2023-12-20T01:54:36;101642.91;;;6.96;100.00
42633;BME280;28261;53.304;-6.284;2023-12-20T01:56:42;101646.22;;;7.01;100.00
42633;BME280;28261;53.304;-6.284;2023-12-20T01:58:47;101645.22;;;7.04;100.00
42633;BME280;28261;53.304;-6.284;2023-12-20T02:00:52;101646.88;;;7.06;100.00
42633;BME280;28261;53.304;-6.284;2023-12-20T02:03:01;101641.56;;;7.08;100.00
42633;BME280;28261;53.304;-6.284;2023-12-20T02:05:05;101648.44;;;7.12;100.00
42633;BME280;28261;53.304;-6.284;2023-12-20T02:07:10;101646.53;;;7.16;100.00
42633;BME280;28261;53.304;-6.284;2023-12-20T02:09:22;101632.38;;;7.18;100.00
42633;BME280;28261;53.304;-6.284;2023-12-20T02:11:30;101640.19;;;7.21;100.00
42633;BME280;28261;53.304;-6.284;2023-12-20T02:13:33;101634.84;;;7.23;100.00
42633;BME280;28261;53.304;-6.284;2023-12-20T02:15:37;101640.03;;;7.26;100.00
42633;BME280;28261;53.304;-6.284;2023-12-20T02:17:45;101635.53;;;7.28;100.00
42633;BME280;28261;53.304;-6.284;2023-12-20T02:19:53;101616.94;;;7.31;100.00
42633;BME280;28261;53.304;-6.284;2023-12-20T02:22:08;101615.13;;;7.33;100.00
42633;BME280;28261;53.304;-6.284;2023-12-20T02:24:13;101615.91;;;7.35;100.00
42633;BME280;28261;53.304;-6.284;2023-12-20T02:26:19;101618.50;;;7.37;100.00
42633;BME280;28261;53.304;-6.284;2023-12-20T02:28:23;101625.38;;;7.41;100.00
42633;BME280;28261;53.304;-6.284;2023-12-20T02:30:28;101623.59;;;7.41;100.00
42633;BME280;28261;53.304;-6.284;2023-12-20T02:32:34;101629.59;;;7.45;100.00
42633;BME280;28261;53.304;-6.284;2023-12-20T02:34:40;101635.72;;;7.45;100.00
42633;BME280;28261;53.304;-6.284;2023-12-20T02:36:47;101635.66;;;7.47;100.00
42633;BME280;28261;53.304;-6.284;2023-12-20T02:38:52;101633.88;;;7.48;100.00
42633;BME280;28261;53.304;-6.284;2023-12-20T02:40:58;101631.25;;;7.48;100.00
42633;BME280;28261;53.304;-6.284;2023-12-20T02:43:02;101621.63;;;7.47;100.00
42633;BME280;28261;53.304;-6.284;2023-12-20T02:45:07;101626.97;;;7.45;100.00
42633;BME280;28261;53.304;-6.284;2023-12-20T02:47:13;101636.66;;;7.44;100.00
42633;BME280;28261;53.304;-6.284;2023-12-20T02:49:17;101627.06;;;7.42;100.00
42633;BME280;28261;53.304;-6.284;2023-12-20T02:51:21;101626.22;;;7.41;100.00
42633;BME280;28261;53.304;-6.284;2023-12-20T02:53:26;101644.75;;;7.40;100.00
42633;BME280;28261;53.304;-6.284;2023-12-20T02:55:31;101650.16;;;7.37;100.00
42633;BME280;28261;53.304;-6.284;2023-12-20T02:57:35;101657.19;;;7.36;100.00
42633;BME280;28261;53.304;-6.284;2023-12-20T02:59:39;101653.72;;;7.36;100.00
42633;BME280;28261;53.304;-6.284;2023-12-20T03:01:45;101649.28;;;7.36;100.00
42633;BME280;28261;53.304;-6.284;2023-12-20T03:03:49;101645.78;;;7.36;100.00
42633;BME280;28261;53.304;-6.284;2023-12-20T03:05:55;101650.19;;;7.35;100.00
42633;BME280;28261;53.304;-6.284;2023-12-20T03:08:00;101651.91;;;7.36;100.00
42633;BME280;28261;53.304;-6.284;2023-12-20T03:10:10;101656.28;;;7.37;100.00
42633;BME280;28261;53.304;-6.284;2023-12-20T03:12:27;101643.03;;;7.39;100.00
42633;BME280;28261;53.304;-6.284;2023-12-20T03:14:31;101642.06;;;7.41;100.00
42633;BME280;28261;53.304;-6.284;2023-12-20T03:16:35;101639.28;;;7.44;100.00
42633;BME280;28261;53.304;-6.284;2023-12-20T03:18:39;101641.78;;;7.48;100.00
42633;BME280;28261;53.304;-6.284;2023-12-20T03:20:43;101627.63;;;7.50;100.00
42633;BME280;28261;53.304;-6.284;2023-12-20T03:22:47;101629.28;;;7.53;100.00
42633;BME280;28261;53.304;-6.284;2023-12-20T03:24:51;101616.84;;;7.56;100.00
42633;BME280;28261;53.304;-6.284;2023-12-20T03:26:55;101621.13;;;7.59;100.00
42633;BME280;28261;53.304;-6.284;2023-12-20T03:29:01;101624.56;;;7.61;100.00
42633;BME280;28261;53.304;-6.284;2023-12-20T03:31:05;101613.94;;;7.62;100.00
42633;BME280;28261;53.304;-6.284;2023-12-20T03:33:10;101616.47;;;7.66;100.00
42633;BME280;28261;53.304;-6.284;2023-12-20T03:35:17;101619.06;;;7.67;100.00
42633;BME280;28261;53.304;-6.284;2023-12-20T03:37:21;101615.53;;;7.67;100.00
42633;BME280;28261;53.304;-6.284;2023-12-20T03:39:26;101611.13;;;7.67;100.00
42633;BME280;28261;53.304;-6.284;2023-12-20T03:41:30;101618.25;;;7.65;100.00
42633;BME280;28261;53.304;-6.284;2023-12-20T03:43:34;101612.97;;;7.65;100.00
42633;BME280;28261;53.304;-6.284;2023-12-20T03:45:43;101609.53;;;7.63;100.00
42633;BME280;28261;53.304;-6.284;2023-12-20T03:47:48;101608.66;;;7.62;100.00
42633;BME280;28261;53.304;-6.284;2023-12-20T03:49:53;101605.13;;;7.63;100.00
42633;BME280;28261;53.304;-6.284;2023-12-20T03:51:59;101593.72;;;7.63;100.00
42633;BME280;28261;53.304;-6.284;2023-12-20T03:54:04;101612.91;;;7.67;100.00
42633;BME280;28261;53.304;-6.284;2023-12-20T03:56:09;101607.59;;;7.68;100.00
42633;BME280;28261;53.304;-6.284;2023-12-20T03:58:14;101609.28;;;7.69;100.00
42633;BME280;28261;53.304;-6.284;2023-12-20T04:00:18;101608.22;;;7.73;100.00
42633;BME280;28261;53.304;-6.284;2023-12-20T04:02:24;101606.53;;;7.72;100.00
42633;BME280;28261;53.304;-6.284;2023-12-20T04:04:29;101602.09;;;7.73;100.00
42633;BME280;28261;53.304;-6.284;2023-12-20T04:06:36;101607.38;;;7.73;100.00
42633;BME280;28261;53.304;-6.284;2023-12-20T04:08:40;101611.75;;;7.74;100.00
42633;BME280;28261;53.304;-6.284;2023-12-20T04:10:45;101611.69;;;7.75;100.00
42633;BME280;28261;53.304;-6.284;2023-12-20T04:12:53;101621.44;;;7.73;100.00
42633;BME280;28261;53.304;-6.284;2023-12-20T04:14:57;101638.06;;;7.75;100.00
42633;BME280;28261;53.304;-6.284;2023-12-20T04:17:03;101637.19;;;7.75;100.00
42633;BME280;28261;53.304;-6.284;2023-12-20T04:19:11;101655.63;;;7.76;100.00
42633;BME280;28261;53.304;-6.284;2023-12-20T04:21:16;101655.63;;;7.76;100.00
42633;BME280;28261;53.304;-6.284;2023-12-20T04:23:23;101659.19;;;7.75;100.00
42633;BME280;28261;53.304;-6.284;2023-12-20T04:25:28;101659.19;;;7.75;100.00
42633;BME280;28261;53.304;-6.284;2023-12-20T04:27:32;101656.56;;;7.75;100.00
42633;BME280;28261;53.304;-6.284;2023-12-20T04:29:36;101661.00;;;7.73;100.00
42633;BME280;28261;53.304;-6.284;2023-12-20T04:31:40;101658.38;;;7.73;100.00
42633;BME280;28261;53.304;-6.284;2023-12-20T04:33:44;101659.25;;;7.74;100.00
42633;BME280;28261;53.304;-6.284;2023-12-20T04:35:49;101649.53;;;7.74;100.00
42633;BME280;28261;53.304;-6.284;2023-12-20T04:37:53;101638.06;;;7.75;100.00
42633;BME280;28261;53.304;-6.284;2023-12-20T04:39:58;101625.66;;;7.77;100.00
42633;BME280;28261;53.304;-6.284;2023-12-20T04:42:03;101614.13;;;7.80;100.00
42633;BME280;28261;53.304;-6.284;2023-12-20T04:44:06;101600.06;;;7.79;100.00
42633;BME280;28261;53.304;-6.284;2023-12-20T04:46:10;101606.13;;;7.82;100.00
42633;BME280;28261;53.304;-6.284;2023-12-20T04:48:14;101613.13;;;7.83;100.00
42633;BME280;28261;53.304;-6.284;2023-12-20T04:50:19;101613.97;;;7.83;100.00
42633;BME280;28261;53.304;-6.284;2023-12-20T04:52:25;101618.34;;;7.84;100.00
42633;BME280;28261;53.304;-6.284;2023-12-20T04:54:29;101624.44;;;7.86;100.00
42633;BME280;28261;53.304;-6.284;2023-12-20T04:56:34;101618.19;;;7.89;100.00
42633;BME280;28261;53.304;-6.284;2023-12-20T04:58:37;101620.81;;;7.89;100.00
42633;BME280;28261;53.304;-6.284;2023-12-20T05:00:41;101607.63;;;7.89;100.00
42633;BME280;28261;53.304;-6.284;2023-12-20T05:02:45;101629.53;;;7.91;100.00
42633;BME280;28261;53.304;-6.284;2023-12-20T05:04:49;101632.09;;;7.92;100.00
42633;BME280;28261;53.304;-6.284;2023-12-20T05:06:56;101616.19;;;7.94;100.00
42633;BME280;28261;53.304;-6.284;2023-12-20T05:09:02;101617.91;;;7.95;100.00
42633;BME280;28261;53.304;-6.284;2023-12-20T05:11:07;101619.63;;;7.96;100.00
42633;BME280;28261;53.304;-6.284;2023-12-20T05:13:11;101638.19;;;7.94;100.00
42633;BME280;28261;53.304;-6.284;2023-12-20T05:15:15;101626.03;;;7.90;100.00
42633;BME280;28261;53.304;-6.284;2023-12-20T05:17:19;101628.75;;;7.89;100.00
42633;BME280;28261;53.304;-6.284;2023-12-20T05:19:24;101630.50;;;7.88;100.00
42633;BME280;28261;53.304;-6.284;2023-12-20T05:21:29;101609.44;;;7.87;100.00
42633;BME280;28261;53.304;-6.284;2023-12-20T05:23:33;101608.69;;;7.83;100.00
42633;BME280;28261;53.304;-6.284;2023-12-20T05:25:39;101603.41;;;7.83;100.00
42633;BME280;28261;53.304;-6.284;2023-12-20T05:27:43;101596.44;;;7.82;100.00
42633;BME280;28261;53.304;-6.284;2023-12-20T05:29:46;101585.09;;;7.80;100.00
42633;BME280;28261;53.304;-6.284;2023-12-20T05:31:51;101600.13;;;7.78;100.00
42633;BME280;28261;53.304;-6.284;2023-12-20T05:33:55;101597.56;;;7.76;100.00
42633;BME280;28261;53.304;-6.284;2023-12-20T05:36:00;101594.97;;;7.75;100.00
42633;BME280;28261;53.304;-6.284;2023-12-20T05:38:04;101598.56;;;7.74;100.00
42633;BME280;28261;53.304;-6.284;2023-12-20T05:40:08;101599.53;;;7.71;100.00
42633;BME280;28261;53.304;-6.284;2023-12-20T05:42:14;101598.63;;;7.72;100.00
42633;BME280;28261;53.304;-6.284;2023-12-20T05:44:18;101602.03;;;7.74;100.00
42633;BME280;28261;53.304;-6.284;2023-12-20T05:46:23;101594.97;;;7.75;100.00
42633;BME280;28261;53.304;-6.284;2023-12-20T05:48:26;101592.28;;;7.76;100.00
42633;BME280;28261;53.304;-6.284;2023-12-20T05:50:31;101587.78;;;7.78;100.00
42633;BME280;28261;53.304;-6.284;2023-12-20T05:52:38;101586.81;;;7.81;100.00
42633;BME280;28261;53.304;-6.284;2023-12-20T05:54:42;101580.63;;;7.82;100.00
42633;BME280;28261;53.304;-6.284;2023-12-20T05:56:47;101578.69;;;7.86;100.00
42633;BME280;28261;53.304;-6.284;2023-12-20T05:58:55;101561.94;;;7.87;100.00
42633;BME280;28261;53.304;-6.284;2023-12-20T06:01:03;101572.34;;;7.90;100.00
42633;BME280;28261;53.304;-6.284;2023-12-20T06:03:09;101547.69;;;7.91;100.00
42633;BME280;28261;53.304;-6.284;2023-12-20T06:05:13;101559.88;;;7.93;100.00
42633;BME280;28261;53.304;-6.284;2023-12-20T06:07:18;101538.84;;;7.92;100.00
42633;BME280;28261;53.304;-6.284;2023-12-20T06:09:23;101528.28;;;7.92;100.00
42633;BME280;28261;53.304;-6.284;2023-12-20T06:11:26;101531.69;;;7.94;100.00
42633;BME280;28261;53.304;-6.284;2023-12-20T06:13:30;101531.69;;;7.94;100.00
42633;BME280;28261;53.304;-6.284;2023-12-20T06:15:36;101533.41;;;7.95;100.00
42633;BME280;28261;53.304;-6.284;2023-12-20T06:17:41;101535.13;;;7.96;100.00
42633;BME280;28261;53.304;-6.284;2023-12-20T06:19:46;101542.25;;;7.94;100.00
42633;BME280;28261;53.304;-6.284;2023-12-20T06:21:52;101544.78;;;7.97;100.00
42633;BME280;28261;53.304;-6.284;2023-12-20T06:23:58;101541.19;;;7.98;100.00
42633;BME280;28261;53.304;-6.284;2023-12-20T06:26:05;101535.00;;;7.99;100.00
42633;BME280;28261;53.304;-6.284;2023-12-20T06:28:09;101535.00;;;7.99;100.00
42633;BME280;28261;53.304;-6.284;2023-12-20T06:30:17;101536.72;;;8.00;100.00
42633;BME280;28261;53.304;-6.284;2023-12-20T06:32:21;101540.13;;;8.02;100.00
42633;BME280;28261;53.304;-6.284;2023-12-20T06:34:26;101545.38;;;8.04;100.00
42633;BME280;28261;53.304;-6.284;2023-12-20T06:36:28;101537.50;;;8.02;100.00
42633;BME280;28261;53.304;-6.284;2023-12-20T06:38:32;101541.03;;;8.03;100.00
42633;BME280;28261;53.304;-6.284;2023-12-20T06:40:36;101541.94;;;8.02;100.00
42633;BME280;28261;53.304;-6.284;2023-12-20T06:42:40;101546.31;;;8.03;100.00
42633;BME280;28261;53.304;-6.284;2023-12-20T06:44:58;101529.56;;;8.02;100.00
42633;BME280;28261;53.304;-6.284;2023-12-20T06:47:01;101534.84;;;8.02;100.00
42633;BME280;28261;53.304;-6.284;2023-12-20T06:49:06;101528.66;;;8.03;100.00
42633;BME280;28261;53.304;-6.284;2023-12-20T06:51:12;101535.66;;;8.04;100.00
42633;BME280;28261;53.304;-6.284;2023-12-20T06:53:15;101553.22;;;8.05;100.00
42633;BME280;28261;53.304;-6.284;2023-12-20T06:55:19;101573.38;;;8.08;100.00
42633;BME280;28261;53.304;-6.284;2023-12-20T06:57:23;101581.22;;;8.09;100.00
42633;BME280;28261;53.304;-6.284;2023-12-20T06:59:28;101583.88;;;8.09;100.00
42633;BME280;28261;53.304;-6.284;2023-12-20T07:01:32;101585.53;;;8.12;100.00
42633;BME280;28261;53.304;-6.284;2023-12-20T07:03:36;101581.09;;;8.12;100.00
42633;BME280;28261;53.304;-6.284;2023-12-20T07:05:41;101565.25;;;8.12;100.00
42633;BME280;28261;53.304;-6.284;2023-12-20T07:07:45;101566.91;;;8.15;100.00
42633;BME280;28261;53.304;-6.284;2023-12-20T07:09:49;101543.97;;;8.16;100.00
42633;BME280;28261;53.304;-6.284;2023-12-20T07:11:53;101531.63;;;8.16;100.00
42633;BME280;28261;53.304;-6.284;2023-12-20T07:13:56;101543.97;;;8.16;100.00
42633;BME280;28261;53.304;-6.284;2023-12-20T07:16:00;101547.41;;;8.18;100.00
42633;BME280;28261;53.304;-6.284;2023-12-20T07:18:04;101538.63;;;8.17;100.00
42633;BME280;28261;53.304;-6.284;2023-12-20T07:20:10;101551.81;;;8.17;100.00
42633;BME280;28261;53.304;-6.284;2023-12-20T07:22:14;101554.53;;;8.16;100.00
42633;BME280;28261;53.304;-6.284;2023-12-20T07:24:18;101553.75;;;8.13;100.00
42633;BME280;28261;53.304;-6.284;2023-12-20T07:26:22;101569.59;;;8.13;100.00
42633;BME280;28261;53.304;-6.284;2023-12-20T07:28:25;101561.78;;;8.10;100.00
42633;BME280;28261;53.304;-6.284;2023-12-20T07:30:29;101562.75;;;8.09;100.00
42633;BME280;28261;53.304;-6.284;2023-12-20T07:32:33;101554.09;;;8.06;100.00
42633;BME280;28261;53.304;-6.284;2023-12-20T07:34:37;101542.66;;;8.05;100.00
42633;BME280;28261;53.304;-6.284;2023-12-20T07:36:41;101557.72;;;8.03;100.00
42633;BME280;28261;53.304;-6.284;2023-12-20T07:38:46;101545.50;;;8.01;100.00
42633;BME280;28261;53.304;-6.284;2023-12-20T07:40:50;101543.84;;;7.98;100.00
42633;BME280;28261;53.304;-6.284;2023-12-20T07:42:54;101529.78;;;7.97;100.00
42633;BME280;28261;53.304;-6.284;2023-12-20T07:44:58;101532.44;;;7.97;100.00
42633;BME280;28261;53.304;-6.284;2023-12-20T07:47:02;101531.50;;;7.99;100.00
42633;BME280;28261;53.304;-6.284;2023-12-20T07:49:06;101518.16;;;8.02;100.00
42633;BME280;28261;53.304;-6.284;2023-12-20T07:51:11;101513.69;;;8.04;100.00
42633;BME280;28261;53.304;-6.284;2023-12-20T07:53:14;101499.47;;;8.06;100.00
42633;BME280;28261;53.304;-6.284;2023-12-20T07:55:19;101495.84;;;8.09;100.00
42633;BME280;28261;53.304;-6.284;2023-12-20T07:57:24;101491.38;;;8.11;100.00
42633;BME280;28261;53.304;-6.284;2023-12-20T07:59:27;101485.09;;;8.13;100.00
42633;BME280;28261;53.304;-6.284;2023-12-20T08:01:34;101476.22;;;8.14;100.00
42633;BME280;28261;53.304;-6.284;2023-12-20T08:03:38;101486.78;;;8.14;100.00
42633;BME280;28261;53.304;-6.284;2023-12-20T08:05:42;101462.09;;;8.16;100.00
42633;BME280;28261;53.304;-6.284;2023-12-20T08:07:45;101465.53;;;8.18;100.00
42633;BME280;28261;53.304;-6.284;2023-12-20T08:09:49;101469.94;;;8.17;100.00
42633;BME280;28261;53.304;-6.284;2023-12-20T08:11:55;101471.53;;;8.21;100.00
42633;BME280;28261;53.304;-6.284;2023-12-20T08:14:01;101491.66;;;8.24;100.00
42633;BME280;28261;53.304;-6.284;2023-12-20T08:16:04;101490.66;;;8.26;100.00
42633;BME280;28261;53.304;-6.284;2023-12-20T08:18:08;101479.09;;;8.29;100.00
42633;BME280;28261;53.304;-6.284;2023-12-20T08:20:11;101469.28;;;8.33;100.00
42633;BME280;28261;53.304;-6.284;2023-12-20T08:22:24;101470.97;;;8.34;100.00
42633;BME280;28261;53.304;-6.284;2023-12-20T08:24:28;101484.13;;;8.35;100.00
42633;BME280;28261;53.304;-6.284;2023-12-20T08:26:33;101482.25;;;8.37;100.00
42633;BME280;28261;53.304;-6.284;2023-12-20T08:28:38;101467.31;;;8.36;100.00
42633;BME280;28261;53.304;-6.284;2023-12-20T08:30:43;101477.91;;;8.36;100.00
42633;BME280;28261;53.304;-6.284;2023-12-20T08:32:47;101468.28;;;8.35;100.00
42633;BME280;28261;53.304;-6.284;2023-12-20T08:34:51;101491.09;;;8.36;100.00
42633;BME280;28261;53.304;-6.284;2023-12-20T08:36:56;101482.09;;;8.40;100.00
42633;BME280;28261;53.304;-6.284;2023-12-20T08:39:00;101468.91;;;8.40;100.00
42633;BME280;28261;53.304;-6.284;2023-12-20T08:41:07;101459.22;;;8.41;100.00
42633;BME280;28261;53.304;-6.284;2023-12-20T08:43:11;101480.19;;;8.44;100.00
42633;BME280;28261;53.304;-6.284;2023-12-20T08:45:17;101480.16;;;8.45;100.00
42633;BME280;28261;53.304;-6.284;2023-12-20T08:47:21;101474.03;;;8.45;100.00
42633;BME280;28261;53.304;-6.284;2023-12-20T08:49:25;101470.44;;;8.46;100.00
42633;BME280;28261;53.304;-6.284;2023-12-20T08:51:30;101483.59;;;8.48;100.00
42633;BME280;28261;53.304;-6.284;2023-12-20T08:53:34;101483.59;;;8.48;100.00
42633;BME280;28261;53.304;-6.284;2023-12-20T08:55:37;101480.00;;;8.49;100.00
42633;BME280;28261;53.304;-6.284;2023-12-20T08:57:41;101467.59;;;8.51;100.00
42633;BME280;28261;53.304;-6.284;2023-12-20T08:59:46;101473.72;;;8.51;100.00
42633;BME280;28261;53.304;-6.284;2023-12-20T09:01:51;101474.53;;;8.53;100.00
42633;BME280;28261;53.304;-6.284;2023-12-20T09:03:57;101471.88;;;8.53;100.00
42633;BME280;28261;53.304;-6.284;2023-12-20T09:06:01;101473.72;;;8.51;100.00
42633;BME280;28261;53.304;-6.284;2023-12-20T09:08:05;101471.09;;;8.51;100.00
42633;BME280;28261;53.304;-6.284;2023-12-20T09:10:10;101471.16;;;8.50;100.00
42633;BME280;28261;53.304;-6.284;2023-12-20T09:12:14;101447.38;;;8.50;100.00
42633;BME280;28261;53.304;-6.284;2023-12-20T09:14:18;101450.03;;;8.50;100.00
42633;BME280;28261;53.304;-6.284;2023-12-20T09:16:21;101453.47;;;8.52;100.00
42633;BME280;28261;53.304;-6.284;2023-12-20T09:18:26;101437.59;;;8.52;100.00
42633;BME280;28261;53.304;-6.284;2023-12-20T09:20:30;101437.44;;;8.55;100.00
42633;BME280;28261;53.304;-6.284;2023-12-20T09:22:35;101425.00;;;8.57;100.00
42633;BME280;28261;53.304;-6.284;2023-12-20T09:24:40;101414.44;;;8.57;100.00
42633;BME280;28261;53.304;-6.284;2023-12-20T09:26:44;101403.75;;;8.60;100.00
42633;BME280;28261;53.304;-6.284;2023-12-20T09:28:48;101398.47;;;8.60;100.00
42633;BME280;28261;53.304;-6.284;2023-12-20T09:30:51;101401.03;;;8.61;100.00
42633;BME280;28261;53.304;-6.284;2023-12-20T09:32:55;101392.09;;;8.64;100.00
42633;BME280;28261;53.304;-6.284;2023-12-20T09:35:01;101394.56;;;8.67;100.00
42633;BME280;28261;53.304;-6.284;2023-12-20T09:37:05;101381.28;;;8.69;100.00
42633;BME280;28261;53.304;-6.284;2023-12-20T09:39:11;101374.16;;;8.71;100.00
42633;BME280;28261;53.304;-6.284;2023-12-20T09:41:15;101376.72;;;8.72;100.00
42633;BME280;28261;53.304;-6.284;2023-12-20T09:43:19;101380.13;;;8.74;100.00
42633;BME280;28261;53.304;-6.284;2023-12-20T09:45:24;101373.84;;;8.77;100.00
42633;BME280;28261;53.304;-6.284;2023-12-20T09:47:27;101375.47;;;8.79;100.00
42633;BME280;28261;53.304;-6.284;2023-12-20T09:49:31;101367.53;;;8.79;100.00
42633;BME280;28261;53.304;-6.284;2023-12-20T09:51:38;101369.25;;;8.80;100.00
42633;BME280;28261;53.304;-6.284;2023-12-20T09:53:43;101348.19;;;8.79;100.00
42633;BME280;28261;53.304;-6.284;2023-12-20T09:55:47;101346.22;;;8.83;100.00
42633;BME280;28261;53.304;-6.284;2023-12-20T09:57:51;101354.16;;;8.83;100.00
42633;BME280;28261;53.304;-6.284;2023-12-20T09:59:55;101344.38;;;8.85;100.00
42633;BME280;28261;53.304;-6.284;2023-12-20T10:02:01;101344.47;;;8.83;100.00
42633;BME280;28261;53.304;-6.284;2023-12-20T10:04:09;101348.88;;;8.83;100.00
42633;BME280;28261;53.304;-6.284;2023-12-20T10:06:30;101337.38;;;8.84;100.00
42633;BME280;28261;53.304;-6.284;2023-12-20T10:08:35;101335.56;;;8.84;100.00
42633;BME280;28261;53.304;-6.284;2023-12-20T10:10:39;101322.34;;;8.84;100.00
42633;BME280;28261;53.304;-6.284;2023-12-20T10:13:02;101325.88;;;8.85;100.00
42633;BME280;28261;53.304;-6.284;2023-12-20T10:15:06;101314.34;;;8.86;100.00
42633;BME280;28261;53.304;-6.284;2023-12-20T10:17:12;101307.28;;;8.86;100.00
42633;BME280;28261;53.304;-6.284;2023-12-20T10:19:17;101324.00;;;8.87;100.00
42633;BME280;28261;53.304;-6.284;2023-12-20T10:21:22;101295.78;;;8.87;100.00
42633;BME280;28261;53.304;-6.284;2023-12-20T10:23:26;101319.63;;;8.86;100.00
42633;BME280;28261;53.304;-6.284;2023-12-20T10:25:30;101319.63;;;8.86;100.00
42633;BME280;28261;53.304;-6.284;2023-12-20T10:27:35;101322.34;;;8.84;100.00
42633;BME280;28261;53.304;-6.284;2023-12-20T10:29:39;101338.31;;;8.83;100.00
42633;BME280;28261;53.304;-6.284;2023-12-20T10:31:43;101332.09;;;8.84;100.00
42633;BME280;28261;53.304;-6.284;2023-12-20T10:33:48;101341.75;;;8.85;100.00
42633;BME280;28261;53.304;-6.284;2023-12-20T10:35:53;101333.81;;;8.85;100.00
42633;BME280;28261;53.304;-6.284;2023-12-20T10:37:56;101321.50;;;8.84;100.00
42633;BME280;28261;53.304;-6.284;2023-12-20T10:40:04;101323.16;;;8.86;100.00
42633;BME280;28261;53.304;-6.284;2023-12-20T10:42:11;101332.72;;;8.89;100.00
42633;BME280;28261;53.304;-6.284;2023-12-20T10:44:15;101352.91;;;8.90;100.00
42633;BME280;28261;53.304;-6.284;2023-12-20T10:46:19;101354.63;;;8.91;100.00